Time;durP1;ratioP1;P1;durP2;ratioP2;P2;SDS_P1;SDS_P2;PMS_P1;PMS_P2;Temp;Humidity;BMP_temperature;BMP_pressure;BME280_temperature;BME280_humidity;BME280_pressure;Samples;Min_cycle;Max_cycle;Signal;HPM_P1;HPM_P2
2024/02/21 00:00:25;;;;;;;8.33;2.37;;;;;;;;;;4965430;28;20184;-87
2024/02/21 00:03:29;;;;;;;6.73;2.53;;;;;;;;;;4953156;29;20219;-87
2024/02/21 00:06:33;;;;;;;7.00;2.47;;;;;;;;;;4953084;29;20188;-87
2024/02/21 00:09:38;;;;;;;7.33;2.73;;;;;;;;;;4953423;29;20655;-88
2024/02/21 00:12:42;;;;;;;6.77;2.37;;;;;;;;;;4953126;29;20226;-87
2024/02/21 00:15:46;;;;;;;4.73;2.40;;;;;;;;;;4953654;29;20184;-88
2024/02/21 00:18:50;;;;;;;6.77;2.77;;;;;;;;;;4953970;29;20191;-87
2024/02/21 00:21:55;;;;;;;10.80;3.30;;;;;;;;;;4953661;29;20544;-87
2024/02/21 00:24:59;;;;;;;9.50;2.97;;;;;;;;;;4953145;29;20183;-87
2024/02/21 00:28:05;;;;;;;6.10;2.70;;;;;;;;;;4964452;28;20184;-87
2024/02/21 00:31:10;;;;;;;6.40;2.43;;;;;;;;;;4953023;29;20583;-87
2024/02/21 00:34:14;;;;;;;5.77;2.37;;;;;;;;;;4953284;29;20223;-87
2024/02/21 00:37:18;;;;;;;7.93;2.60;;;;;;;;;;4954601;28;20184;-87
2024/02/21 00:40:23;;;;;;;7.37;3.07;;;;;;;;;;4967594;28;20543;-87
2024/02/21 00:43:26;;;;;;;5.83;2.37;;;;;;;;;;4945344;29;20223;-87
2024/02/21 00:46:31;;;;;;;10.93;2.87;;;;;;;;;;4956590;29;20187;-87
2024/02/21 00:49:35;;;;;;;13.70;2.60;;;;;;;;;;4956064;29;20672;-87
2024/02/21 00:52:39;;;;;;;5.50;2.50;;;;;;;;;;4945682;29;20715;-87
2024/02/21 00:55:43;;;;;;;8.23;2.47;;;;;;;;;;4956582;29;20179;-87
2024/02/21 00:58:48;;;;;;;7.23;2.90;;;;;;;;;;4956739;29;20176;-87
2024/02/21 01:01:52;;;;;;;9.43;2.63;;;;;;;;;;4956754;29;20518;-87
2024/02/21 01:04:57;;;;;;;9.53;2.67;;;;;;;;;;4957652;29;20184;-87
2024/02/21 01:08:01;;;;;;;7.07;2.93;;;;;;;;;;4967525;28;20188;-87
2024/02/21 01:11:10;;;;;;;5.37;2.30;;;;;;;;;;4955937;29;20216;-87
2024/02/21 01:14:13;;;;;;;7.37;2.37;;;;;;;;;;4955918;29;20235;-87
2024/02/21 01:17:18;;;;;;;4.03;2.10;;;;;;;;;;4945681;29;20188;-87
2024/02/21 01:20:22;;;;;;;4.23;2.50;;;;;;;;;;4956879;29;20545;-88
2024/02/21 01:23:26;;;;;;;8.50;2.63;;;;;;;;;;4956469;29;20227;-87
2024/02/21 01:26:30;;;;;;;8.07;2.47;;;;;;;;;;4956526;29;20536;-87
2024/02/21 01:29:34;;;;;;;7.07;2.37;;;;;;;;;;4956447;29;20219;-87
2024/02/21 01:32:38;;;;;;;7.80;2.20;;;;;;;;;;4956191;29;20216;-87
2024/02/21 01:35:42;;;;;;;6.70;2.13;;;;;;;;;;4956177;29;20185;-87
2024/02/21 01:38:46;;;;;;;8.07;2.30;;;;;;;;;;4955766;29;20188;-87
2024/02/21 01:41:50;;;;;;;7.30;2.30;;;;;;;;;;4956224;29;20179;-87
2024/02/21 01:44:54;;;;;;;10.43;2.73;;;;;;;;;;4956350;29;20184;-87
2024/02/21 01:47:59;;;;;;;3.87;1.90;;;;;;;;;;4944845;29;20636;-87
2024/02/21 01:51:04;;;;;;;5.83;2.80;;;;;;;;;;4955808;29;20207;-87
2024/02/21 01:54:09;;;;;;;5.73;2.33;;;;;;;;;;4967047;28;20219;-87
2024/02/21 01:57:14;;;;;;;6.00;2.20;;;;;;;;;;4956126;29;20188;-87
2024/02/21 02:00:20;;;;;;;7.90;2.33;;;;;;;;;;4944524;29;20180;-87
2024/02/21 02:03:25;;;;;;;5.37;2.33;;;;;;;;;;4967007;28;20219;-87
2024/02/21 02:06:30;;;;;;;3.13;2.00;;;;;;;;;;4944927;29;20184;-87
2024/02/21 02:09:34;;;;;;;6.73;2.70;;;;;;;;;;4955489;29;20187;-88
2024/02/21 02:12:38;;;;;;;7.90;2.73;;;;;;;;;;4954943;29;20219;-87
2024/02/21 02:15:45;;;;;;;10.77;2.53;;;;;;;;;;4955196;29;20632;-87
2024/02/21 02:18:49;;;;;;;3.13;1.90;;;;;;;;;;4955073;29;20196;-87
2024/02/21 02:22:02;;;;;;;6.40;2.20;;;;;;;;;;4956309;29;20180;-87
2024/02/21 02:25:07;;;;;;;6.10;2.20;;;;;;;;;;4955343;29;20184;-87
2024/02/21 02:28:11;;;;;;;4.47;2.03;;;;;;;;;;4944693;29;20199;-87
2024/02/21 02:31:15;;;;;;;7.07;2.30;;;;;;;;;;4955272;29;20211;-87
2024/02/21 02:34:19;;;;;;;5.60;2.20;;;;;;;;;;4954790;29;20219;-87
2024/02/21 02:37:23;;;;;;;5.53;2.23;;;;;;;;;;4955259;29;20179;-87
2024/02/21 02:40:27;;;;;;;3.60;2.03;;;;;;;;;;4955227;29;20532;-87
2024/02/21 02:43:31;;;;;;;7.57;2.33;;;;;;;;;;4966395;28;20223;-88
2024/02/21 02:46:35;;;;;;;7.80;2.40;;;;;;;;;;4955075;29;20183;-87
2024/02/21 02:49:40;;;;;;;9.83;2.50;;;;;;;;;;4944447;29;20180;-87
2024/02/21 02:52:44;;;;;;;6.97;1.97;;;;;;;;;;4943981;29;20232;-87
2024/02/21 02:55:48;;;;;;;6.07;2.60;;;;;;;;;;4966253;28;20187;-87
2024/02/21 02:58:52;;;;;;;5.93;2.17;;;;;;;;;;4955080;28;20187;-87
2024/02/21 03:01:57;;;;;;;6.63;2.43;;;;;;;;;;4954733;29;20183;-88
2024/02/21 03:05:10;;;;;;;6.87;2.30;;;;;;;;;;4954934;29;20179;-87
2024/02/21 03:08:15;;;;;;;5.10;2.07;;;;;;;;;;4964810;28;20184;-88
2024/02/21 03:11:18;;;;;;;5.40;2.27;;;;;;;;;;4954366;29;20668;-87
2024/02/21 03:14:22;;;;;;;6.40;2.80;;;;;;;;;;4954348;29;20231;-84
2024/02/21 03:17:27;;;;;;;8.53;2.20;;;;;;;;;;4953706;29;20180;-84
2024/02/21 03:20:33;;;;;;;6.27;2.17;;;;;;;;;;4953674;29;20218;-84
2024/02/21 03:23:37;;;;;;;6.70;2.23;;;;;;;;;;4953831;29;20219;-84
2024/02/21 03:26:41;;;;;;;7.83;2.70;;;;;;;;;;4954350;29;20184;-85
2024/02/21 03:29:45;;;;;;;5.97;2.47;;;;;;;;;;4953033;29;20187;-84
2024/02/21 03:32:49;;;;;;;6.37;2.10;;;;;;;;;;4952956;29;20232;-84
2024/02/21 03:35:54;;;;;;;6.97;2.83;;;;;;;;;;4940123;29;20283;-84
2024/02/21 03:38:58;;;;;;;7.97;2.73;;;;;;;;;;4962509;28;20220;-85
2024/02/21 03:42:04;;;;;;;5.57;2.03;;;;;;;;;;4951172;29;20192;-84
2024/02/21 03:45:09;;;;;;;9.03;2.57;;;;;;;;;;4951199;29;20192;-85
2024/02/21 03:48:13;;;;;;;11.53;2.20;;;;;;;;;;4951875;29;20192;-84
2024/02/21 03:51:17;;;;;;;4.63;1.87;;;;;;;;;;4939873;29;20532;-84
2024/02/21 03:54:21;;;;;;;6.80;2.00;;;;;;;;;;4951643;29;20655;-84
2024/02/21 03:57:25;;;;;;;7.40;1.97;;;;;;;;;;4952265;29;20191;-84
2024/02/21 04:00:29;;;;;;;8.00;2.30;;;;;;;;;;4950969;29;20259;-85
2024/02/21 04:03:34;;;;;;;5.27;2.40;;;;;;;;;;4951494;29;20221;-84
2024/02/21 04:06:49;;;;;;;5.97;2.47;;;;;;;;;;4950211;29;20183;-84
2024/02/21 04:09:53;;;;;;;5.23;1.80;;;;;;;;;;4951154;29;20184;-84
2024/02/21 04:12:57;;;;;;;6.23;2.53;;;;;;;;;;4953625;29;20215;-84
2024/02/21 04:16:03;;;;;;;7.33;2.27;;;;;;;;;;4942924;29;20184;-84
2024/02/21 04:19:07;;;;;;;5.53;2.20;;;;;;;;;;4954982;29;20184;-84
2024/02/21 04:22:11;;;;;;;6.07;2.20;;;;;;;;;;4954088;29;20597;-84
2024/02/21 04:25:15;;;;;;;7.77;2.30;;;;;;;;;;4965419;28;20188;-84
2024/02/21 04:28:19;;;;;;;6.53;1.73;;;;;;;;;;4943352;29;20525;-84
2024/02/21 04:31:24;;;;;;;5.13;2.03;;;;;;;;;;4964463;28;20212;-84
2024/02/21 04:34:28;;;;;;;6.83;2.17;;;;;;;;;;4954029;29;20219;-84
2024/02/21 04:37:32;;;;;;;6.47;2.23;;;;;;;;;;4964842;28;20203;-84
2024/02/21 04:40:36;;;;;;;5.90;2.13;;;;;;;;;;4953863;29;20179;-84
2024/02/21 04:43:41;;;;;;;6.57;2.13;;;;;;;;;;4953534;29;20219;-84
2024/02/21 04:46:44;;;;;;;3.40;2.10;;;;;;;;;;4953167;29;20184;-84
2024/02/21 04:49:49;;;;;;;5.43;2.00;;;;;;;;;;4953275;29;20612;-83
2024/02/21 04:52:53;;;;;;;5.87;1.97;;;;;;;;;;4964052;28;20212;-83
2024/02/21 04:55:57;;;;;;;6.43;1.80;;;;;;;;;;4964537;28;20203;-84
2024/02/21 04:59:01;;;;;;;7.47;2.27;;;;;;;;;;4953288;29;20581;-84
2024/02/21 05:02:05;;;;;;;7.47;2.13;;;;;;;;;;4954061;29;20175;-84
2024/02/21 05:05:10;;;;;;;5.73;2.07;;;;;;;;;;4954778;29;20183;-84
2024/02/21 05:08:14;;;;;;;7.97;1.93;;;;;;;;;;4955263;29;20567;-84
2024/02/21 05:11:18;;;;;;;4.67;1.97;;;;;;;;;;4953823;29;20215;-84
2024/02/21 05:14:22;;;;;;;6.07;2.27;;;;;;;;;;4952788;29;20234;-84
2024/02/21 05:17:26;;;;;;;3.50;1.83;;;;;;;;;;4953420;29;20191;-84
2024/02/21 05:20:30;;;;;;;4.47;1.90;;;;;;;;;;4953725;29;20188;-84
2024/02/21 05:23:34;;;;;;;7.30;2.10;;;;;;;;;;4953143;28;20215;-84
2024/02/21 05:26:38;;;;;;;3.90;2.00;;;;;;;;;;4954149;29;20180;-84
2024/02/21 05:29:44;;;;;;;3.30;1.63;;;;;;;;;;4955077;29;20553;-84
2024/02/21 05:32:48;;;;;;;6.97;2.10;;;;;;;;;;4943970;29;20212;-84
2024/02/21 05:35:53;;;;;;;8.57;1.87;;;;;;;;;;4966398;28;20188;-84
2024/02/21 05:38:57;;;;;;;4.03;1.83;;;;;;;;;;4955399;29;20633;-84
2024/02/21 05:42:01;;;;;;;9.37;2.10;;;;;;;;;;4955496;29;20184;-84
2024/02/21 05:45:05;;;;;;;7.10;1.70;;;;;;;;;;4944765;29;20183;-84
2024/02/21 05:48:09;;;;;;;8.50;2.00;;;;;;;;;;4955784;29;20637;-84
2024/02/21 05:51:14;;;;;;;6.47;1.80;;;;;;;;;;4955205;29;20220;-84
2024/02/21 05:54:18;;;;;;;5.27;1.80;;;;;;;;;;4955795;29;20223;-84
2024/02/21 05:57:22;;;;;;;4.40;1.70;;;;;;;;;;4955798;29;20188;-84
2024/02/21 06:00:26;;;;;;;3.07;1.70;;;;;;;;;;4955843;29;20184;-83
2024/02/21 06:03:30;;;;;;;4.10;2.10;;;;;;;;;;4944520;29;20215;-84
2024/02/21 06:06:34;;;;;;;3.40;1.53;;;;;;;;;;4955755;29;20179;-84
2024/02/21 06:09:38;;;;;;;2.43;1.33;;;;;;;;;;4955856;29;20187;-83
2024/02/21 06:12:42;;;;;;;3.67;1.73;;;;;;;;;;4956123;29;20596;-83
2024/02/21 06:15:49;;;;;;;3.03;2.03;;;;;;;;;;4955802;29;20184;-83
2024/02/21 06:18:53;;;;;;;6.27;2.03;;;;;;;;;;4951618;29;20211;-84
2024/02/21 06:21:57;;;;;;;3.93;1.90;;;;;;;;;;4950294;29;20179;-84
2024/02/21 06:25:02;;;;;;;6.60;1.93;;;;;;;;;;4950618;29;20188;-84
2024/02/21 06:28:06;;;;;;;4.23;1.70;;;;;;;;;;4938961;29;20195;-84
2024/02/21 06:31:10;;;;;;;3.90;1.87;;;;;;;;;;4950756;29;20322;-84
2024/02/21 06:34:14;;;;;;;4.47;1.93;;;;;;;;;;4949147;29;20219;-84
2024/02/21 06:37:18;;;;;;;4.83;1.87;;;;;;;;;;4939543;29;20187;-83
2024/02/21 06:40:23;;;;;;;3.73;1.70;;;;;;;;;;4950003;29;20179;-84
2024/02/21 06:43:27;;;;;;;8.03;2.70;;;;;;;;;;4950034;29;20219;-84
2024/02/21 06:46:33;;;;;;;3.53;1.50;;;;;;;;;;4950909;29;20183;-84
2024/02/21 06:49:37;;;;;;;3.23;1.60;;;;;;;;;;4951017;29;20183;-84
2024/02/21 06:52:41;;;;;;;14.70;9.20;;;;;;;;;;4949799;29;20572;-83
2024/02/21 06:55:45;;;;;;;4.90;2.07;;;;;;;;;;4951050;29;20183;-84
2024/02/21 06:58:49;;;;;;;4.10;1.50;;;;;;;;;;4951304;29;20612;-84
2024/02/21 07:01:55;;;;;;;3.63;1.43;;;;;;;;;;4961594;28;20192;-84
2024/02/21 07:05:00;;;;;;;5.23;1.37;;;;;;;;;;4950821;29;20195;-84
2024/02/21 07:08:04;;;;;;;5.67;1.53;;;;;;;;;;4950408;29;20187;-85
2024/02/21 07:11:08;;;;;;;3.17;1.57;;;;;;;;;;4954294;29;20184;-84
2024/02/21 07:14:14;;;;;;;2.93;1.23;;;;;;;;;;4954762;29;20227;-84
2024/02/21 07:17:18;;;;;;;7.60;4.57;;;;;;;;;;4953846;29;20629;-84
2024/02/21 07:20:22;;;;;;;10.43;5.63;;;;;;;;;;4953775;29;20183;-84
2024/02/21 07:23:26;;;;;;;8.90;5.00;;;;;;;;;;4953421;29;20554;-84
2024/02/21 07:26:31;;;;;;;9.40;4.70;;;;;;;;;;4954423;29;20183;-84
2024/02/21 07:29:35;;;;;;;11.73;5.47;;;;;;;;;;4953552;29;20187;-83
2024/02/21 07:32:39;;;;;;;6.47;4.90;;;;;;;;;;4953498;29;20235;-84
2024/02/21 07:35:44;;;;;;;4.47;2.63;;;;;;;;;;4953541;29;20624;-83
2024/02/21 07:38:48;;;;;;;7.47;2.20;;;;;;;;;;4964369;28;20184;-84
2024/02/21 07:41:53;;;;;;;8.63;2.60;;;;;;;;;;4953422;29;20628;-84
2024/02/21 07:44:57;;;;;;;7.67;2.30;;;;;;;;;;4964228;28;20188;-84
2024/02/21 07:48:02;;;;;;;6.43;2.47;;;;;;;;;;4957162;29;20197;-84
2024/02/21 07:51:06;;;;;;;6.63;1.90;;;;;;;;;;4946150;29;20184;-83
2024/02/21 07:54:10;;;;;;;5.37;1.47;;;;;;;;;;4956186;29;20219;-87
2024/02/21 07:57:14;;;;;;;4.70;2.20;;;;;;;;;;4944405;29;20187;-87
2024/02/21 08:00:19;;;;;;;2.90;1.67;;;;;;;;;;4944621;29;20183;-87
2024/02/21 08:03:25;;;;;;;4.50;1.50;;;;;;;;;;4955135;29;20215;-87
2024/02/21 08:06:29;;;;;;;3.57;1.70;;;;;;;;;;4967932;28;20184;-85
2024/02/21 08:09:34;;;;;;;5.57;1.60;;;;;;;;;;4958603;29;20180;-87
2024/02/21 08:12:38;;;;;;;1.60;1.00;;;;;;;;;;4966439;28;20235;-87
2024/02/21 08:15:43;;;;;;;4.47;1.53;;;;;;;;;;4954926;29;20184;-87
2024/02/21 08:18:47;;;;;;;3.17;1.20;;;;;;;;;;4955587;29;20543;-87
2024/02/21 08:21:50;;;;;;;3.33;1.20;;;;;;;;;;4954795;29;20179;-86
2024/02/21 08:24:55;;;;;;;2.80;1.30;;;;;;;;;;4954903;29;20180;-86
2024/02/21 08:27:59;;;;;;;3.47;1.40;;;;;;;;;;4965753;28;20653;-87
2024/02/21 08:31:03;;;;;;;3.67;1.20;;;;;;;;;;4966218;28;20231;-87
2024/02/21 08:34:07;;;;;;;2.87;1.53;;;;;;;;;;4944061;29;20215;-88
2024/02/21 08:37:11;;;;;;;3.60;1.23;;;;;;;;;;4944298;29;20188;-88
2024/02/21 08:40:20;;;;;;;7.13;1.83;;;;;;;;;;4954677;29;20187;-87
2024/02/21 08:43:25;;;;;;;6.70;1.50;;;;;;;;;;4954890;29;20587;-87
2024/02/21 08:46:29;;;;;;;4.20;1.77;;;;;;;;;;4944089;29;20195;-87
2024/02/21 08:49:33;;;;;;;4.90;1.63;;;;;;;;;;4954848;29;20179;-87
2024/02/21 08:52:37;;;;;;;2.67;1.20;;;;;;;;;;4955273;29;20239;-86
2024/02/21 08:55:41;;;;;;;2.73;1.27;;;;;;;;;;4965146;28;20183;-87
2024/02/21 08:58:46;;;;;;;6.60;2.00;;;;;;;;;;4942546;29;20179;-87
2024/02/21 09:01:52;;;;;;;4.33;1.47;;;;;;;;;;4954152;29;20526;-86
2024/02/21 09:04:56;;;;;;;5.83;1.77;;;;;;;;;;4954251;29;20180;-86
2024/02/21 09:08:00;;;;;;;4.50;1.37;;;;;;;;;;4964920;28;20529;-86
2024/02/21 09:11:06;;;;;;;4.23;1.30;;;;;;;;;;4954190;29;20569;-87
2024/02/21 09:44:15;;;;;;;4.10;1.47;;;;;;;;;;4962319;28;20230;-85
2024/02/21 09:47:31;;;;;;;2.67;1.27;;;;;;;;;;4976044;28;20176;-85
2024/02/21 09:50:38;;;;;;;3.30;1.30;;;;;;;;;;4976514;28;20187;-86
2024/02/21 09:53:43;;;;;;;3.77;1.40;;;;;;;;;;4976470;28;20227;-85
2024/02/21 09:56:47;;;;;;;7.60;1.37;;;;;;;;;;4975955;28;20183;-84
2024/02/21 09:59:52;;;;;;;6.47;1.20;;;;;;;;;;4975225;28;20187;-85
2024/02/21 10:02:58;;;;;;;3.60;1.27;;;;;;;;;;4974194;28;20183;-84
2024/02/21 10:06:02;;;;;;;4.00;1.30;;;;;;;;;;4962293;28;20191;-84
2024/02/21 10:09:07;;;;;;;5.77;1.40;;;;;;;;;;4974920;28;20179;-85
2024/02/21 10:12:12;;;;;;;7.07;1.33;;;;;;;;;;4974791;28;20211;-84
2024/02/21 10:15:21;;;;;;;4.23;1.40;;;;;;;;;;4975032;28;20179;-85
2024/02/21 10:18:26;;;;;;;2.97;1.17;;;;;;;;;;4977289;28;20187;-84
2024/02/21 10:21:30;;;;;;;2.73;1.10;;;;;;;;;;4978616;28;20186;-86
2024/02/21 10:24:37;;;;;;;3.17;1.10;;;;;;;;;;4976397;28;20211;-83
2024/02/21 10:27:42;;;;;;;6.57;1.50;;;;;;;;;;4976685;28;20187;-83
2024/02/21 10:30:51;;;;;;;2.63;1.17;;;;;;;;;;4976000;28;20179;-82
2024/02/21 10:34:05;;;;;;;3.77;1.30;;;;;;;;;;4964618;28;20734;-84
2024/02/21 10:37:10;;;;;;;4.47;1.03;;;;;;;;;;4976033;28;20179;-84
2024/02/21 10:40:14;;;;;;;4.47;1.43;;;;;;;;;;4975055;28;20635;-84
2024/02/21 10:43:20;;;;;;;4.33;1.30;;;;;;;;;;4975126;28;20226;-84
2024/02/21 10:46:24;;;;;;;3.97;1.40;;;;;;;;;;4963691;28;20183;-83
2024/02/21 10:49:30;;;;;;;3.80;1.40;;;;;;;;;;4974921;28;20179;-82
2024/02/21 10:52:48;;;;;;;4.87;1.30;;;;;;;;;;4974880;28;20206;-83
2024/02/21 10:56:20;;;;;;;3.03;1.20;;;;;;;;;;4964333;28;20187;-84
2024/02/21 10:59:26;;;;;;;3.83;1.60;;;;;;;;;;4975263;28;20183;-84
2024/02/21 11:02:31;;;;;;;7.40;1.50;;;;;;;;;;4974462;28;20175;-82
2024/02/21 11:05:35;;;;;;;4.23;1.10;;;;;;;;;;4976455;28;20195;-85
2024/02/21 11:08:40;;;;;;;16.13;1.23;;;;;;;;;;4975676;28;20183;-84
2024/02/21 11:11:44;;;;;;;3.77;1.10;;;;;;;;;;4974479;28;20642;-85
2024/02/21 11:14:51;;;;;;;3.73;1.20;;;;;;;;;;4986456;28;20701;-85
2024/02/21 11:18:24;;;;;;;6.10;1.27;;;;;;;;;;4973446;28;20538;-83
2024/02/21 11:21:38;;;;;;;4.83;1.90;;;;;;;;;;4972035;28;20183;-84
2024/02/21 11:24:44;;;;;;;5.03;1.10;;;;;;;;;;4961588;28;20207;-84
2024/02/21 11:28:04;;;;;;;5.07;1.30;;;;;;;;;;4963149;28;20178;-85
2024/02/21 11:31:13;;;;;;;6.70;1.43;;;;;;;;;;4973755;28;20171;-86
2024/02/21 11:34:24;;;;;;;2.80;1.00;;;;;;;;;;4984092;28;20226;-86
2024/02/21 11:37:29;;;;;;;3.40;1.10;;;;;;;;;;4973743;28;20632;-86
2024/02/21 11:45:48;;;;;;;2.37;0.90;;;;;;;;;;4973360;28;20206;-86
2024/02/21 11:48:52;;;;;;;3.03;1.00;;;;;;;;;;4950591;28;20528;-86
2024/02/21 11:51:59;;;;;;;4.27;1.23;;;;;;;;;;4972955;28;20183;-85
2024/02/21 11:55:04;;;;;;;5.40;1.20;;;;;;;;;;4962116;28;20199;-85
2024/02/21 11:58:08;;;;;;;2.43;0.90;;;;;;;;;;4972871;28;20520;-85
2024/02/21 12:01:14;;;;;;;3.30;0.87;;;;;;;;;;4950950;28;20187;-86
2024/02/21 12:04:21;;;;;;;2.17;0.97;;;;;;;;;;4950771;28;20206;-85
2024/02/21 12:07:25;;;;;;;3.50;1.17;;;;;;;;;;4961138;28;20187;-85
2024/02/21 12:10:29;;;;;;;1.43;1.00;;;;;;;;;;4972690;28;20183;-85
2024/02/21 12:13:34;;;;;;;3.00;1.07;;;;;;;;;;4972536;28;20235;-84
2024/02/21 12:16:38;;;;;;;1.93;0.97;;;;;;;;;;4968801;28;20172;-85
2024/02/21 12:19:43;;;;;;;2.73;1.07;;;;;;;;;;4974060;28;20183;-85
2024/02/21 12:22:49;;;;;;;2.63;1.00;;;;;;;;;;4973636;28;20179;-84
2024/02/21 12:25:54;;;;;;;2.00;1.17;;;;;;;;;;4964652;28;20183;-86
2024/02/21 12:28:58;;;;;;;1.17;0.67;;;;;;;;;;4973035;28;20179;-85
2024/02/21 12:32:04;;;;;;;1.00;0.80;;;;;;;;;;4980494;28;20183;-85
2024/02/21 12:35:17;;;;;;;1.87;0.90;;;;;;;;;;4980821;28;20643;-85
2024/02/21 12:38:23;;;;;;;1.87;0.87;;;;;;;;;;4958464;28;20187;-85
2024/02/21 12:41:27;;;;;;;2.20;0.83;;;;;;;;;;4981416;28;20167;-86
2024/02/21 12:44:32;;;;;;;2.20;0.80;;;;;;;;;;4987017;28;20231;-86
2024/02/21 12:47:40;;;;;;;1.27;0.60;;;;;;;;;;4975333;28;20183;-86
2024/02/21 12:50:51;;;;;;;1.70;0.87;;;;;;;;;;4959794;28;20180;-85
2024/02/21 12:53:56;;;;;;;1.93;0.70;;;;;;;;;;4970599;28;20584;-85
2024/02/21 12:57:02;;;;;;;1.17;0.70;;;;;;;;;;4969310;28;20183;-86
2024/02/21 13:00:11;;;;;;;1.73;0.90;;;;;;;;;;4967430;28;20184;-86
2024/02/21 13:03:15;;;;;;;2.03;0.80;;;;;;;;;;4958481;28;20215;-86
2024/02/21 13:06:19;;;;;;;1.33;0.63;;;;;;;;;;4959405;28;20651;-85
2024/02/21 13:09:23;;;;;;;1.60;0.80;;;;;;;;;;4977488;28;20187;-86
2024/02/21 13:12:27;;;;;;;1.50;0.60;;;;;;;;;;4969925;28;20183;-86
2024/02/21 13:15:33;;;;;;;1.57;0.80;;;;;;;;;;4983156;28;20183;-86
2024/02/21 13:18:39;;;;;;;2.70;0.80;;;;;;;;;;4966470;28;20179;-87
2024/02/21 13:21:46;;;;;;;1.13;0.80;;;;;;;;;;4943085;28;20183;-87
2024/02/21 13:24:53;;;;;;;1.93;0.70;;;;;;;;;;4956345;28;20219;-85
2024/02/21 13:27:57;;;;;;;2.07;0.77;;;;;;;;;;4930951;28;20187;-86
2024/02/21 13:31:08;;;;;;;1.77;0.80;;;;;;;;;;4963921;28;20179;-86
2024/02/21 13:34:12;;;;;;;1.57;0.70;;;;;;;;;;4965685;28;20227;-87
2024/02/21 13:37:16;;;;;;;1.67;0.90;;;;;;;;;;4980568;28;20195;-86
2024/02/21 13:40:20;;;;;;;1.57;0.73;;;;;;;;;;4981163;28;20179;-86
2024/02/21 13:43:25;;;;;;;0.60;0.50;;;;;;;;;;4976321;28;20726;-86
2024/02/21 13:46:29;;;;;;;2.70;0.70;;;;;;;;;;4965036;28;20171;-85
2024/02/21 13:49:34;;;;;;;1.30;0.87;;;;;;;;;;4977278;28;20524;-85
2024/02/21 13:52:38;;;;;;;2.30;0.70;;;;;;;;;;4964330;28;20179;-86
2024/02/21 13:55:45;;;;;;;1.30;0.60;;;;;;;;;;4964117;28;20520;-85
2024/02/21 13:58:51;;;;;;;0.93;0.43;;;;;;;;;;4965004;28;20179;-85
2024/02/21 14:01:56;;;;;;;1.43;0.60;;;;;;;;;;4964522;28;20191;-87
2024/02/21 14:05:04;;;;;;;1.43;0.50;;;;;;;;;;4952238;28;20715;-86
2024/02/21 14:08:12;;;;;;;1.53;0.70;;;;;;;;;;4965895;28;20199;-86
2024/02/21 14:11:16;;;;;;;2.20;0.70;;;;;;;;;;4957292;28;20195;-86
2024/02/21 14:14:21;;;;;;;0.87;0.60;;;;;;;;;;4963107;28;20223;-87
2024/02/21 14:17:25;;;;;;;1.13;0.73;;;;;;;;;;4973704;28;20647;-87
2024/02/21 14:20:30;;;;;;;0.70;0.50;;;;;;;;;;4973586;28;20186;-87
2024/02/21 14:23:34;;;;;;;2.50;0.60;;;;;;;;;;4973592;28;20218;-86
2024/02/21 14:26:41;;;;;;;0.97;0.60;;;;;;;;;;4951435;28;20179;-86
2024/02/21 14:29:45;;;;;;;1.83;0.70;;;;;;;;;;4951748;28;20643;-86
2024/02/21 14:32:49;;;;;;;1.90;0.47;;;;;;;;;;4965939;28;20183;-86
2024/02/21 14:35:53;;;;;;;0.50;0.40;;;;;;;;;;4968574;28;20183;-85
2024/02/21 14:38:58;;;;;;;0.93;0.60;;;;;;;;;;4975058;28;20179;-85
2024/02/21 14:42:02;;;;;;;1.03;0.40;;;;;;;;;;4963993;28;20183;-85
2024/02/21 14:45:07;;;;;;;1.13;0.50;;;;;;;;;;4975279;28;20210;-85
2024/02/21 14:48:11;;;;;;;1.33;0.63;;;;;;;;;;4963960;28;20175;-85
2024/02/21 14:51:15;;;;;;;1.03;0.50;;;;;;;;;;4963870;28;20175;-84
2024/02/21 14:54:20;;;;;;;0.53;0.40;;;;;;;;;;4975774;28;20219;-84
2024/02/21 14:57:25;;;;;;;0.87;0.50;;;;;;;;;;4964060;28;20528;-85
2024/02/21 15:01:25;;;;;;;3.23;0.60;;;;;;;;;;4970906;28;20186;-85
2024/02/21 15:04:30;;;;;;;0.50;0.50;;;;;;;;;;4963916;28;20218;-85
2024/02/21 15:07:34;;;;;;;1.00;0.70;;;;;;;;;;4963303;28;20528;-86
2024/02/21 15:10:39;;;;;;;0.60;0.40;;;;;;;;;;4974273;28;20183;-85
2024/02/21 15:13:45;;;;;;;0.90;0.50;;;;;;;;;;4963630;28;20230;-85
2024/02/21 15:16:49;;;;;;;1.73;0.50;;;;;;;;;;4962679;28;20175;-85
2024/02/21 15:19:55;;;;;;;2.20;0.40;;;;;;;;;;4963257;28;20178;-85
2024/02/21 15:23:04;;;;;;;0.97;0.40;;;;;;;;;;4964055;28;20214;-85
2024/02/21 15:26:09;;;;;;;1.03;0.40;;;;;;;;;;4951917;28;20183;-85
2024/02/21 15:29:59;;;;;;;1.07;0.43;;;;;;;;;;4973589;28;20183;-86
2024/02/21 15:33:04;;;;;;;0.93;0.40;;;;;;;;;;4952652;28;20218;-86
2024/02/21 15:36:09;;;;;;;1.33;0.40;;;;;;;;;;4962587;28;20179;-86
2024/02/21 15:39:14;;;;;;;0.93;0.53;;;;;;;;;;4973407;28;20183;-86
2024/02/21 15:42:20;;;;;;;1.37;0.60;;;;;;;;;;4962917;28;20186;-86
2024/02/21 15:45:24;;;;;;;0.73;0.53;;;;;;;;;;4962568;28;20203;-85
2024/02/21 15:48:30;;;;;;;0.93;0.53;;;;;;;;;;4951783;28;20179;-86
2024/02/21 15:51:35;;;;;;;1.70;0.70;;;;;;;;;;4962291;28;20179;-85
2024/02/21 15:54:45;;;;;;;0.40;0.40;;;;;;;;;;4952140;28;20223;-86
2024/02/21 15:58:40;;;;;;;4.03;0.60;;;;;;;;;;4969933;28;20560;-85
2024/02/21 16:01:44;;;;;;;2.80;0.63;;;;;;;;;;4962866;28;20183;-86
2024/02/21 16:04:49;;;;;;;3.70;0.40;;;;;;;;;;4974103;28;20219;-85
2024/02/21 16:07:54;;;;;;;0.70;0.53;;;;;;;;;;4977140;28;20639;-85
2024/02/21 16:10:59;;;;;;;0.93;0.50;;;;;;;;;;4977823;28;20635;-85
2024/02/21 16:14:04;;;;;;;4.33;0.70;;;;;;;;;;4988589;28;20568;-85
2024/02/21 16:17:33;;;;;;;1.63;0.50;;;;;;;;;;4966552;28;20187;-86
2024/02/21 16:20:37;;;;;;;3.23;0.63;;;;;;;;;;4965896;28;20183;-86
2024/02/21 16:23:42;;;;;;;1.13;0.57;;;;;;;;;;4955042;28;20214;-86
2024/02/21 16:26:46;;;;;;;0.83;0.50;;;;;;;;;;4977638;28;20174;-85
2024/02/21 16:29:51;;;;;;;0.87;0.60;;;;;;;;;;4979054;28;20179;-86
2024/02/21 16:32:56;;;;;;;1.27;0.93;;;;;;;;;;4977476;28;20191;-85
2024/02/21 16:36:02;;;;;;;1.37;0.50;;;;;;;;;;4977938;28;20215;-85
2024/02/21 16:39:06;;;;;;;0.47;0.43;;;;;;;;;;4978142;28;20179;-85
2024/02/21 16:42:10;;;;;;;1.53;0.60;;;;;;;;;;4967291;28;20175;-85
2024/02/21 16:45:15;;;;;;;1.43;0.70;;;;;;;;;;4955558;28;20202;-86
2024/02/21 16:48:20;;;;;;;1.63;0.60;;;;;;;;;;4976613;28;20635;-87
2024/02/21 16:51:24;;;;;;;2.53;0.60;;;;;;;;;;4976236;28;20186;-86
2024/02/21 16:58:04;;;;;;;1.53;0.63;;;;;;;;;;4965385;28;20508;-86
2024/02/21 17:01:27;;;;;;;1.43;0.63;;;;;;;;;;4968210;28;20183;-85
2024/02/21 17:04:41;;;;;;;1.57;0.97;;;;;;;;;;4964499;28;20215;-86
2024/02/21 17:07:47;;;;;;;1.33;0.90;;;;;;;;;;4964591;28;20179;-86
2024/02/21 17:10:59;;;;;;;0.80;0.70;;;;;;;;;;4954009;28;20555;-86
2024/02/21 17:14:06;;;;;;;0.90;0.80;;;;;;;;;;4976292;28;20214;-86
2024/02/21 17:17:13;;;;;;;2.47;1.10;;;;;;;;;;4970721;28;20555;-86
2024/02/21 17:20:17;;;;;;;2.40;0.97;;;;;;;;;;4965738;28;20175;-86
2024/02/21 17:23:22;;;;;;;1.53;0.80;;;;;;;;;;4966631;28;20219;-87
2024/02/21 17:26:27;;;;;;;2.37;0.80;;;;;;;;;;4978093;28;20183;-85
2024/02/21 17:29:31;;;;;;;2.93;1.17;;;;;;;;;;4954950;28;20183;-84
2024/02/21 17:32:51;;;;;;;1.03;0.80;;;;;;;;;;4976083;28;20187;-89
2024/02/21 17:36:53;;;;;;;1.40;0.90;;;;;;;;;;4964454;28;20187;-88
2024/02/21 17:40:12;;;;;;;3.80;0.90;;;;;;;;;;4963085;28;20544;-88
2024/02/21 17:43:44;;;;;;;3.63;1.17;;;;;;;;;;4975532;28;20222;-85
2024/02/21 17:46:56;;;;;;;2.93;0.77;;;;;;;;;;4954428;28;20179;-86
2024/02/21 17:50:29;;;;;;;3.40;1.00;;;;;;;;;;4963692;28;20183;-87
2024/02/21 17:53:50;;;;;;;3.10;1.00;;;;;;;;;;4974553;28;20219;-86
2024/02/21 17:57:45;;;;;;;3.80;0.90;;;;;;;;;;4975510;28;20183;-86
2024/02/21 18:00:51;;;;;;;2.90;1.20;;;;;;;;;;4963918;28;20203;-86
2024/02/21 18:03:55;;;;;;;1.47;0.90;;;;;;;;;;4952462;28;20694;-86
2024/02/21 18:06:59;;;;;;;1.77;1.00;;;;;;;;;;4952658;28;20171;-86
2024/02/21 18:10:09;;;;;;;1.20;0.90;;;;;;;;;;4977319;28;20636;-86
2024/02/21 18:13:13;;;;;;;1.70;1.00;;;;;;;;;;4954013;28;20596;-86
2024/02/21 18:16:17;;;;;;;1.30;0.87;;;;;;;;;;4977506;28;20214;-86
2024/02/21 18:19:22;;;;;;;1.60;0.80;;;;;;;;;;4975974;28;20178;-87
2024/02/21 18:22:26;;;;;;;1.57;1.10;;;;;;;;;;4964675;28;20174;-87
2024/02/21 18:25:30;;;;;;;1.07;0.90;;;;;;;;;;4975281;28;20175;-88
2024/02/21 18:28:34;;;;;;;3.80;0.93;;;;;;;;;;4965028;28;20183;-89
2024/02/21 18:31:38;;;;;;;1.20;1.10;;;;;;;;;;4976622;28;20191;-88
2024/02/21 18:34:44;;;;;;;2.40;1.03;;;;;;;;;;4975707;28;20224;-90
2024/02/21 18:37:48;;;;;;;1.17;0.90;;;;;;;;;;4964273;28;20195;-88
2024/02/21 18:40:54;;;;;;;2.13;1.00;;;;;;;;;;4964620;28;20178;-88
2024/02/21 18:44:00;;;;;;;1.90;1.30;;;;;;;;;;4963737;28;20226;-89
2024/02/21 18:47:04;;;;;;;2.10;1.23;;;;;;;;;;4964849;28;20567;-90
2024/02/21 18:50:09;;;;;;;2.33;1.13;;;;;;;;;;4975388;28;20187;-90
2024/02/21 18:53:14;;;;;;;1.60;1.10;;;;;;;;;;4964200;28;20293;-90
2024/02/21 18:56:18;;;;;;;1.40;0.90;;;;;;;;;;4952804;28;20206;-89
2024/02/21 18:59:33;;;;;;;1.90;1.13;;;;;;;;;;4974778;28;20635;-89
2024/02/21 19:02:37;;;;;;;5.03;1.10;;;;;;;;;;4965415;28;20179;-87
2024/02/21 19:05:42;;;;;;;4.93;1.20;;;;;;;;;;4976331;28;20177;-87
2024/02/21 19:08:46;;;;;;;2.53;0.80;;;;;;;;;;4964591;28;20179;-88
2024/02/21 19:11:51;;;;;;;1.80;0.93;;;;;;;;;;4959698;28;20211;-86
2024/02/21 19:14:55;;;;;;;2.43;1.37;;;;;;;;;;4943897;28;20236;-85